createdAt,value
2018-08-25T00:00:35.600Z,1004.52
2018-08-25T00:01:44.252Z,1004.5
2018-08-25T00:02:52.891Z,1004.48
2018-08-25T00:04:01.536Z,1004.44
2018-08-25T00:05:10.449Z,1004.44
2018-08-25T00:06:19.096Z,1004.41
2018-08-25T00:07:27.736Z,1004.39
2018-08-25T00:08:36.388Z,1004.41
2018-08-25T00:09:45.030Z,1004.38
2018-08-25T00:10:53.680Z,1004.37
2018-08-25T00:12:02.322Z,1004.36
2018-08-25T00:13:10.967Z,1004.35
2018-08-25T00:14:19.875Z,1004.3
2018-08-25T00:15:28.520Z,1004.35
2018-08-25T00:16:37.175Z,1004.3
2018-08-25T00:17:45.818Z,1004.27
2018-08-25T00:18:54.461Z,1004.24
2018-08-25T00:20:03.102Z,1004.27
2018-08-25T00:21:11.749Z,1004.23
2018-08-25T00:22:20.390Z,1004.27
2018-08-25T00:23:29.036Z,1004.29
2018-08-25T00:24:37.675Z,1004.29
2018-08-25T00:25:46.325Z,1004.24
2018-08-25T00:26:54.970Z,1004.17
2018-08-25T00:28:03.878Z,1004.13
2018-08-25T00:29:12.519Z,1004.18
2018-08-25T00:30:21.166Z,1004.16
2018-08-25T00:31:29.811Z,1004.17
2018-08-25T00:32:38.457Z,1004.15
2018-08-25T00:33:47.109Z,1004.09
2018-08-25T00:34:55.747Z,1004.1
2018-08-25T00:36:04.660Z,1004.08
2018-08-25T00:37:13.306Z,1004.08
2018-08-25T00:38:21.959Z,1004.09
2018-08-25T00:39:30.597Z,1004.06
2018-08-25T00:40:39.243Z,1004.05
2018-08-25T00:41:48.149Z,1004.02
2018-08-25T00:42:57.076Z,1003.98
2018-08-25T00:44:05.716Z,1003.99
2018-08-25T00:45:14.363Z,1003.97
2018-08-25T00:46:23.005Z,1003.96
2018-08-25T00:47:32.183Z,1003.96
2018-08-25T00:48:41.435Z,1003.95
2018-08-25T00:49:50.083Z,1003.96
2018-08-25T00:50:58.992Z,1003.95
2018-08-25T00:52:07.897Z,1003.93
2018-08-25T00:53:16.543Z,1003.91
2018-08-25T00:54:25.187Z,1003.89
2018-08-25T00:55:33.833Z,1003.87
2018-08-25T00:56:42.472Z,1003.87
2018-08-25T00:57:51.123Z,1003.86
2018-08-25T00:58:59.763Z,1003.84
2018-08-25T01:00:08.413Z,1003.8
2018-08-25T01:01:17.051Z,1003.78
2018-08-25T01:02:25.699Z,1003.81
2018-08-25T01:03:34.341Z,1003.83
2018-08-25T01:04:42.986Z,1003.81
2018-08-25T01:05:51.622Z,1003.8
2018-08-25T01:07:00.272Z,1003.73
2018-08-25T01:08:08.920Z,1003.73
2018-08-25T01:09:17.567Z,1003.72
2018-08-25T01:10:26.214Z,1003.72
2018-08-25T01:11:34.855Z,1003.71
2018-08-25T01:12:43.506Z,1003.69
2018-08-25T01:13:52.143Z,1003.7
2018-08-25T01:15:00.802Z,1003.71
2018-08-25T01:16:09.436Z,1003.71
2018-08-25T01:17:18.092Z,1003.73
2018-08-25T01:18:26.737Z,1003.74
2018-08-25T01:19:35.391Z,1003.75
2018-08-25T01:20:44.026Z,1003.73
2018-08-25T01:21:52.670Z,1003.73
2018-08-25T01:23:01.315Z,1003.7
2018-08-25T01:24:09.966Z,1003.68
2018-08-25T01:25:18.614Z,1003.7
2018-08-25T01:26:27.259Z,1003.64
2018-08-25T01:27:35.903Z,1003.61
2018-08-25T01:28:44.544Z,1003.55
2018-08-25T01:29:53.199Z,1003.58
2018-08-25T01:31:01.838Z,1003.57
2018-08-25T01:32:10.493Z,1003.55
2018-08-25T01:33:19.135Z,1003.56
2018-08-25T01:34:28.058Z,1003.55
2018-08-25T01:35:36.693Z,1003.55
2018-08-25T01:36:45.342Z,1003.61
2018-08-25T01:37:53.977Z,1003.64
2018-08-25T01:39:02.633Z,1003.6
2018-08-25T01:40:11.539Z,1003.62
2018-08-25T01:41:20.449Z,1003.6
2018-08-25T01:42:29.347Z,1003.52
2018-08-25T01:43:37.993Z,1003.56
2018-08-25T01:44:46.644Z,1003.57
2018-08-25T01:45:55.289Z,1003.56
2018-08-25T01:47:03.936Z,1003.56
2018-08-25T01:48:12.834Z,1003.52
2018-08-25T01:49:21.486Z,1003.49
2018-08-25T01:50:30.128Z,1003.46
2018-08-25T01:51:38.782Z,1003.45
2018-08-25T01:52:47.418Z,1003.47
2018-08-25T01:53:56.064Z,1003.44
2018-08-25T01:55:04.969Z,1003.42
2018-08-25T01:56:13.873Z,1003.41
2018-08-25T01:57:22.524Z,1003.42
2018-08-25T01:58:31.169Z,1003.4
2018-08-25T01:59:40.072Z,1003.35
2018-08-25T02:00:48.705Z,1003.38
2018-08-25T02:01:57.884Z,1003.37
2018-08-25T02:03:06.540Z,1003.36
2018-08-25T02:04:15.175Z,1003.31
2018-08-25T02:05:24.080Z,1003.26
2018-08-25T02:06:32.711Z,1003.25
2018-08-25T02:07:41.627Z,1003.24
2018-08-25T02:08:50.266Z,1003.19
2018-08-25T02:09:58.919Z,1003.18
2018-08-25T02:11:07.555Z,1003.17
2018-08-25T02:12:16.204Z,1003.14
2018-08-25T02:13:24.844Z,1003.11
2018-08-25T02:14:33.766Z,1003.09
2018-08-25T02:15:42.403Z,1003.1
2018-08-25T02:16:51.317Z,1003.05
2018-08-25T02:17:59.959Z,1003.01
2018-08-25T02:19:08.610Z,1003.01
2018-08-25T02:20:17.251Z,1003
2018-08-25T02:21:25.893Z,1002.95
2018-08-25T02:22:34.534Z,1002.96
2018-08-25T02:23:43.175Z,1002.99
2018-08-25T02:24:51.829Z,1003
2018-08-25T02:26:00.729Z,1002.98
2018-08-25T02:27:09.383Z,1002.92
2018-08-25T02:28:18.050Z,1002.92
2018-08-25T02:29:27.096Z,1002.92
2018-08-25T02:30:35.744Z,1002.91
2018-08-25T02:31:44.905Z,1002.91
2018-08-25T02:32:53.537Z,1002.89
2018-08-25T02:34:02.189Z,1002.86
2018-08-25T02:35:10.829Z,1002.84
2018-08-25T02:36:19.743Z,1002.84
2018-08-25T02:37:28.379Z,1002.78
2018-08-25T02:38:37.067Z,1002.78
2018-08-25T02:39:45.678Z,1002.7
2018-08-25T02:40:54.327Z,1002.7
2018-08-25T02:42:02.969Z,1002.7
2018-08-25T02:43:11.605Z,1002.69
2018-08-25T02:44:20.257Z,1002.66
2018-08-25T02:45:28.896Z,1002.67
2018-08-25T02:46:37.548Z,1002.65
2018-08-25T02:47:46.184Z,1002.64
2018-08-25T02:48:54.836Z,1002.63
2018-08-25T02:50:03.518Z,1002.62
2018-08-25T02:51:12.124Z,1002.66
2018-08-25T02:52:20.760Z,1002.64
2018-08-25T02:53:29.406Z,1002.64
2018-08-25T02:54:38.049Z,1002.61
2018-08-25T02:55:46.702Z,1002.59
2018-08-25T02:56:55.344Z,1002.62
2018-08-25T02:58:04.255Z,1002.61
2018-08-25T02:59:13.163Z,1002.58
2018-08-25T03:00:21.828Z,1002.59
2018-08-25T03:01:30.460Z,1002.56
2018-08-25T03:02:39.109Z,1002.54
2018-08-25T03:03:47.751Z,1002.5
2018-08-25T03:04:56.395Z,1002.52
2018-08-25T03:06:05.566Z,1002.48
2018-08-25T03:07:14.489Z,1002.48
2018-08-25T03:08:23.134Z,1002.47
2018-08-25T03:09:31.773Z,1002.45
2018-08-25T03:10:40.695Z,1002.43
2018-08-25T03:11:49.335Z,1002.43
2018-08-25T03:12:57.991Z,1002.46
2018-08-25T03:14:06.899Z,1002.47
2018-08-25T03:15:15.546Z,1002.58
2018-08-25T03:16:24.189Z,1002.58
2018-08-25T03:17:33.097Z,1002.51
2018-08-25T03:18:41.746Z,1002.5
2018-08-25T03:19:50.384Z,1002.46
2018-08-25T03:20:59.029Z,1002.38
2018-08-25T03:22:07.674Z,1002.36
2018-08-25T03:23:16.321Z,1002.35
2018-08-25T03:24:24.960Z,1002.37
2018-08-25T03:25:33.606Z,1002.34
2018-08-25T03:26:42.255Z,1002.34
2018-08-25T03:27:50.902Z,1002.35
2018-08-25T03:28:59.543Z,1002.36
2018-08-25T03:30:08.455Z,1002.36
2018-08-25T03:31:17.620Z,1002.47
2018-08-25T03:32:26.283Z,1002.54
2018-08-25T03:33:35.194Z,1002.53
2018-08-25T03:34:43.835Z,1002.44
2018-08-25T03:35:52.478Z,1002.68
2018-08-25T03:37:01.383Z,1002.69
2018-08-25T03:38:10.031Z,1002.74
2018-08-25T03:39:18.674Z,1002.81
2018-08-25T03:40:27.318Z,1002.77
2018-08-25T03:41:35.958Z,1002.74
2018-08-25T03:42:44.606Z,1002.65
2018-08-25T03:43:53.253Z,1002.64
2018-08-25T03:45:02.157Z,1002.65
2018-08-25T03:46:10.799Z,1002.65
2018-08-25T03:47:19.445Z,1002.63
2018-08-25T03:48:28.350Z,1002.58
2018-08-25T03:49:36.996Z,1002.63
2018-08-25T03:50:45.636Z,1002.6
2018-08-25T03:51:54.541Z,1002.53
2018-08-25T03:53:03.183Z,1002.5
2018-08-25T03:54:11.828Z,1002.46
2018-08-25T03:55:20.519Z,1002.4
2018-08-25T03:56:29.108Z,1002.39
2018-08-25T03:57:37.751Z,1002.37
2018-08-25T03:58:46.391Z,1002.35
2018-08-25T03:59:55.040Z,1002.27
2018-08-25T04:01:03.676Z,1002.25
2018-08-25T04:02:12.321Z,1002.2
2018-08-25T04:03:20.967Z,1002.23
2018-08-25T04:04:29.876Z,1002.23
2018-08-25T04:05:38.516Z,1002.19
2018-08-25T04:06:47.163Z,1002.16
2018-08-25T04:07:56.332Z,1002.19
2018-08-25T04:09:04.991Z,1002.23
2018-08-25T04:10:13.628Z,1002.22
2018-08-25T04:11:22.271Z,1002.22
2018-08-25T04:12:31.189Z,1002.15
2018-08-25T04:13:39.829Z,1002.16
2018-08-25T04:14:48.520Z,1002.14
2018-08-25T04:15:57.118Z,1002.17
2018-08-25T04:17:06.029Z,1002.14
2018-08-25T04:18:14.670Z,1002.16
2018-08-25T04:19:23.315Z,1002.18
2018-08-25T04:20:31.963Z,1002.23
2018-08-25T04:21:40.601Z,1002.26
2018-08-25T04:22:49.239Z,1002.14
2018-08-25T04:23:57.891Z,1002.04
2018-08-25T04:25:06.526Z,1002.08
2018-08-25T04:26:15.169Z,1002.12
2018-08-25T04:27:23.807Z,1002.13
2018-08-25T04:28:32.452Z,1002.17
2018-08-25T04:29:41.096Z,1002.09
2018-08-25T04:30:49.741Z,1002.02
2018-08-25T04:31:58.385Z,1002.03
2018-08-25T04:33:07.023Z,1002.06
2018-08-25T04:34:15.683Z,1002.1
2018-08-25T04:35:24.600Z,1002.1
2018-08-25T04:36:33.777Z,1002.07
2018-08-25T04:37:42.415Z,1002.02
2018-08-25T04:38:51.060Z,1002.05
2018-08-25T04:39:59.966Z,1002.08
2018-08-25T04:41:08.622Z,1002.03
2018-08-25T04:42:17.255Z,1002.09
2018-08-25T04:43:25.904Z,1002.08
2018-08-25T04:44:34.552Z,1002.05
2018-08-25T04:45:43.203Z,1001.98
2018-08-25T04:46:51.842Z,1002.01
2018-08-25T04:48:00.485Z,1002
2018-08-25T04:49:09.135Z,1001.99
2018-08-25T04:50:17.775Z,1001.98
2018-08-25T04:51:26.425Z,1002.06
2018-08-25T04:52:35.325Z,1002.08
2018-08-25T04:53:43.969Z,1002.06
2018-08-25T04:54:52.603Z,1001.94
2018-08-25T04:56:01.258Z,1002.03
2018-08-25T04:57:09.896Z,1002.05
2018-08-25T04:58:18.543Z,1002.06
2018-08-25T04:59:27.183Z,1002.07
2018-08-25T05:00:36.100Z,1002.04
2018-08-25T05:01:44.787Z,1002.01
2018-08-25T05:02:53.720Z,1002.03
2018-08-25T05:04:02.357Z,1001.98
2018-08-25T05:05:11.006Z,1002.05
2018-08-25T05:06:19.650Z,1002.04
2018-08-25T05:07:28.335Z,1002.01
2018-08-25T05:08:36.943Z,1002.06
2018-08-25T05:09:45.581Z,1002.03
2018-08-25T05:10:54.227Z,1002.02
2018-08-25T05:12:02.869Z,1002.11
2018-08-25T05:13:11.518Z,1002.07
2018-08-25T05:14:20.156Z,1002.05
2018-08-25T05:15:28.802Z,1002.01
2018-08-25T05:16:37.446Z,1001.97
2018-08-25T05:17:46.094Z,1001.99
2018-08-25T05:18:54.724Z,1001.98
2018-08-25T05:20:03.368Z,1001.94
2018-08-25T05:21:12.008Z,1002.03
2018-08-25T05:22:20.665Z,1002
2018-08-25T05:23:29.300Z,1002.03
2018-08-25T05:24:37.943Z,1002
2018-08-25T05:25:46.585Z,1002
2018-08-25T05:26:55.226Z,1001.98
2018-08-25T05:28:03.880Z,1001.99
2018-08-25T05:29:12.518Z,1001.93
2018-08-25T05:30:21.168Z,1001.99
2018-08-25T05:31:29.802Z,1001.97
2018-08-25T05:32:38.462Z,1002.06
2018-08-25T05:33:47.106Z,1002.02
2018-08-25T05:34:56.021Z,1002.03
2018-08-25T05:36:04.653Z,1002.02
2018-08-25T05:37:13.566Z,1002
2018-08-25T05:38:22.468Z,1002.07
2018-08-25T05:39:31.375Z,1002.02
2018-08-25T05:40:40.011Z,1002.04
2018-08-25T05:41:48.655Z,1002.07
2018-08-25T05:42:57.312Z,1002.06
2018-08-25T05:44:06.009Z,1002.05
2018-08-25T05:45:15.018Z,1002.04
2018-08-25T05:46:23.914Z,1002.06
2018-08-25T05:47:32.826Z,1002.01
2018-08-25T05:48:41.463Z,1002.05
2018-08-25T05:49:50.378Z,1002
2018-08-25T05:50:59.020Z,1002.05
2018-08-25T05:52:07.930Z,1002.03
2018-08-25T05:53:16.576Z,1002.06
2018-08-25T05:54:25.213Z,1002.05
2018-08-25T05:55:33.866Z,1002.03
2018-08-25T05:56:42.508Z,1002.04
2018-08-25T05:57:51.154Z,1002.02
2018-08-25T05:58:59.789Z,1002.05
2018-08-25T06:00:08.961Z,1002.03
2018-08-25T06:01:17.609Z,1002.12
2018-08-25T06:02:26.260Z,1002.1
2018-08-25T06:03:34.904Z,1002.08
2018-08-25T06:04:43.801Z,1002.09
2018-08-25T06:05:52.449Z,1002.13
2018-08-25T06:07:01.088Z,1002.18
2018-08-25T06:08:09.737Z,1002.17
2018-08-25T06:09:18.372Z,1002.15
2018-08-25T06:10:27.017Z,1002.18
2018-08-25T06:11:35.923Z,1002.17
2018-08-25T06:12:44.574Z,1002.18
2018-08-25T06:13:53.206Z,1002.17
2018-08-25T06:15:01.853Z,1002.23
2018-08-25T06:16:10.496Z,1002.21
2018-08-25T06:17:19.147Z,1002.24
2018-08-25T06:18:27.791Z,1002.22
2018-08-25T06:19:36.955Z,1002.2
2018-08-25T06:20:45.872Z,1002.24
2018-08-25T06:21:54.774Z,1002.22
2018-08-25T06:23:03.424Z,1002.17
2018-08-25T06:24:12.063Z,1002.22
2018-08-25T06:25:20.713Z,1002.28
2018-08-25T06:26:29.348Z,1002.23
2018-08-25T06:27:38.002Z,1002.34
2018-08-25T06:28:46.645Z,1002.32
2018-08-25T06:29:55.571Z,1002.26
2018-08-25T06:31:04.194Z,1002.29
2018-08-25T06:32:12.846Z,1002.28
2018-08-25T06:33:21.505Z,1002.34
2018-08-25T06:34:30.134Z,1002.29
2018-08-25T06:35:38.769Z,1002.32
2018-08-25T06:36:47.430Z,1002.4
2018-08-25T06:37:56.095Z,1002.35
2018-08-25T06:39:05.038Z,1002.43
2018-08-25T06:40:13.688Z,1002.41
2018-08-25T06:41:22.587Z,1002.4
2018-08-25T06:42:31.293Z,1002.4
2018-08-25T06:43:40.339Z,1002.4
2018-08-25T06:44:48.866Z,1002.4
2018-08-25T06:45:57.502Z,1002.38
2018-08-25T06:47:06.154Z,1002.42
2018-08-25T06:48:14.800Z,1002.38
2018-08-25T06:49:23.449Z,1002.41
2018-08-25T06:50:32.087Z,1002.44
2018-08-25T06:51:40.998Z,1002.41
2018-08-25T06:52:49.639Z,1002.44
2018-08-25T06:53:58.286Z,1002.49
2018-08-25T06:55:06.926Z,1002.5
2018-08-25T06:56:15.836Z,1002.59
2018-08-25T06:57:24.478Z,1002.55
2018-08-25T06:58:33.119Z,1002.55
2018-08-25T06:59:41.773Z,1002.5
2018-08-25T07:00:50.680Z,1002.58
2018-08-25T07:01:59.588Z,1002.48
2018-08-25T07:03:08.230Z,1002.56
2018-08-25T07:04:17.141Z,1002.58
2018-08-25T07:05:25.784Z,1002.6
2018-08-25T07:06:34.429Z,1002.61
2018-08-25T07:07:43.069Z,1002.59
2018-08-25T07:08:51.716Z,1002.58
2018-08-25T07:10:00.357Z,1002.66
2018-08-25T07:11:09.269Z,1002.69
2018-08-25T07:12:18.167Z,1002.7
2018-08-25T07:13:26.814Z,1002.76
2018-08-25T07:14:35.723Z,1002.77
2018-08-25T07:15:44.370Z,1002.75
2018-08-25T07:16:53.017Z,1002.79
2018-08-25T07:18:01.658Z,1002.79
2018-08-25T07:19:10.301Z,1002.83
2018-08-25T07:20:18.952Z,1002.83
2018-08-25T07:21:27.590Z,1002.81
2018-08-25T07:22:36.233Z,1002.87
2018-08-25T07:23:44.881Z,1002.86
2018-08-25T07:24:53.524Z,1002.85
2018-08-25T07:26:02.194Z,1002.85
2018-08-25T07:27:10.818Z,1002.86
2018-08-25T07:28:19.463Z,1002.86
2018-08-25T07:29:28.104Z,1002.83
2018-08-25T07:30:36.781Z,1002.89
2018-08-25T07:31:45.395Z,1002.93
2018-08-25T07:32:54.040Z,1002.91
2018-08-25T07:34:02.682Z,1002.88
2018-08-25T07:35:11.322Z,1002.93
2018-08-25T07:36:19.971Z,1002.95
2018-08-25T07:37:28.616Z,1002.94
2018-08-25T07:38:37.261Z,1002.95
2018-08-25T07:39:45.901Z,1002.95
2018-08-25T07:40:54.550Z,1002.98
2018-08-25T07:42:03.193Z,1003
2018-08-25T07:43:12.103Z,1002.93
2018-08-25T07:44:21.006Z,1002.94
2018-08-25T07:45:29.655Z,1002.95
2018-08-25T07:46:38.298Z,1002.92
2018-08-25T07:47:46.951Z,1002.98
2018-08-25T07:48:55.589Z,1002.95
2018-08-25T07:50:04.504Z,1002.92
2018-08-25T07:51:13.428Z,1002.98
2018-08-25T07:52:22.066Z,1002.92
2018-08-25T07:53:30.715Z,1002.96
2018-08-25T07:54:39.352Z,1002.95
2018-08-25T07:55:48.533Z,1002.97
2018-08-25T07:56:57.173Z,1002.96
2018-08-25T07:58:06.092Z,1002.97
2018-08-25T07:59:15.115Z,1002.97
2018-08-25T08:00:23.637Z,1002.97
2018-08-25T08:01:32.281Z,1002.98
2018-08-25T08:02:40.931Z,1002.96
2018-08-25T08:03:49.572Z,1002.99
2018-08-25T08:04:58.216Z,1002.99
2018-08-25T08:06:06.857Z,1003.02
2018-08-25T08:07:15.510Z,1003.07
2018-08-25T08:08:24.419Z,1003.06
2018-08-25T08:09:33.596Z,1003.11
2018-08-25T08:10:42.238Z,1003.17
2018-08-25T08:11:50.971Z,1003.16
2018-08-25T08:13:00.427Z,1003.19
2018-08-25T08:14:09.328Z,1003.19
2018-08-25T08:15:17.976Z,1003.19
2018-08-25T08:16:26.609Z,1003.22
2018-08-25T08:17:35.264Z,1003.26
2018-08-25T08:18:43.900Z,1003.28
2018-08-25T08:19:52.808Z,1003.28
2018-08-25T08:21:01.444Z,1003.3
2018-08-25T08:22:10.096Z,1003.31
2018-08-25T08:23:18.738Z,1003.32
2018-08-25T08:24:27.392Z,1003.32
2018-08-25T08:25:36.279Z,1003.3
2018-08-25T08:26:44.926Z,1003.32
2018-08-25T08:27:53.836Z,1003.3
2018-08-25T08:29:02.480Z,1003.34
2018-08-25T08:30:11.395Z,1003.36
2018-08-25T08:31:20.031Z,1003.38
2018-08-25T08:32:28.681Z,1003.37
2018-08-25T08:33:37.316Z,1003.39
2018-08-25T08:34:45.969Z,1003.39
2018-08-25T08:35:54.602Z,1003.39
2018-08-25T08:37:03.249Z,1003.43
2018-08-25T08:38:11.887Z,1003.41
2018-08-25T08:39:20.585Z,1003.37
2018-08-25T08:40:29.179Z,1003.41
2018-08-25T08:41:37.828Z,1003.45
2018-08-25T08:42:46.469Z,1003.41
2018-08-25T08:43:55.123Z,1003.48
2018-08-25T08:45:03.766Z,1003.39
2018-08-25T08:46:12.403Z,1003.45
2018-08-25T08:47:21.081Z,1003.45
2018-08-25T08:48:30.019Z,1003.42
2018-08-25T08:49:46.595Z,1003.46
2018-08-25T08:50:52.066Z,1003.54
2018-08-25T08:52:00.710Z,1003.64
2018-08-25T08:53:09.886Z,1003.67
2018-08-25T08:54:18.535Z,1003.65
2018-08-25T08:55:27.450Z,1003.63
2018-08-25T08:56:36.093Z,1003.72
2018-08-25T08:57:44.738Z,1003.72
2018-08-25T08:58:53.381Z,1003.75
2018-08-25T09:00:02.286Z,1003.73
2018-08-25T09:01:11.208Z,1003.7
2018-08-25T09:02:19.849Z,1003.66
2018-08-25T09:03:28.566Z,1003.73
2018-08-25T09:04:37.407Z,1003.72
2018-08-25T09:05:46.049Z,1003.8
2018-08-25T09:06:54.699Z,1003.81
2018-08-25T09:08:03.608Z,1003.79
2018-08-25T09:09:12.252Z,1003.85
2018-08-25T09:10:20.897Z,1003.92
2018-08-25T09:11:29.654Z,1003.9
2018-08-25T09:12:38.193Z,1003.89
2018-08-25T09:13:47.098Z,1003.93
2018-08-25T09:14:55.750Z,1003.94
2018-08-25T09:16:04.393Z,1003.99
2018-08-25T09:17:13.032Z,1004
2018-08-25T09:18:21.952Z,1003.93
2018-08-25T09:19:30.670Z,1003.99
2018-08-25T09:20:39.504Z,1003.97
2018-08-25T09:21:48.145Z,1004
2018-08-25T09:22:56.789Z,1004.01
2018-08-25T09:24:05.429Z,1004.03
2018-08-25T09:25:14.072Z,1004.02
2018-08-25T09:26:22.717Z,1004.01
2018-08-25T09:27:31.982Z,1004.02
2018-08-25T09:28:40.525Z,1004.07
2018-08-25T09:29:49.163Z,1004.1
2018-08-25T09:30:57.810Z,1004.03
2018-08-25T09:32:06.455Z,1004.06
2018-08-25T09:33:15.101Z,1004.02
2018-08-25T09:34:23.740Z,1004.03
2018-08-25T09:35:32.389Z,1004.07
2018-08-25T09:36:41.481Z,1004.08
2018-08-25T09:37:49.988Z,1004.09
2018-08-25T09:38:58.629Z,1004.07
2018-08-25T09:40:07.276Z,1004.11
2018-08-25T09:41:15.921Z,1004.12
2018-08-25T09:42:24.568Z,1004.2
2018-08-25T09:43:33.217Z,1004.16
2018-08-25T09:44:42.125Z,1004.15
2018-08-25T09:45:51.040Z,1004.17
2018-08-25T09:46:59.713Z,1004.2
2018-08-25T09:48:08.325Z,1004.15
2018-08-25T09:49:16.980Z,1004.15
2018-08-25T09:50:25.885Z,1004.2
2018-08-25T09:51:34.529Z,1004.14
2018-08-25T09:52:43.169Z,1004.26
2018-08-25T09:53:51.818Z,1004.24
2018-08-25T09:55:00.459Z,1004.22
2018-08-25T09:56:09.108Z,1004.25
2018-08-25T09:57:17.753Z,1004.22
2018-08-25T09:58:26.401Z,1004.25
2018-08-25T09:59:35.044Z,1004.26
2018-08-25T10:00:43.689Z,1004.29
2018-08-25T10:01:52.337Z,1004.31
2018-08-25T10:03:00.976Z,1004.27
2018-08-25T10:04:09.623Z,1004.27
2018-08-25T10:05:18.339Z,1004.32
2018-08-25T10:06:27.350Z,1004.36
2018-08-25T10:07:35.991Z,1004.37
2018-08-25T10:08:44.635Z,1004.4
2018-08-25T10:09:53.285Z,1004.38
2018-08-25T10:11:02.365Z,1004.39
2018-08-25T10:12:10.844Z,1004.43
2018-08-25T10:13:19.755Z,1004.43
2018-08-25T10:14:28.666Z,1004.43
2018-08-25T10:15:37.316Z,1004.43
2018-08-25T10:16:45.986Z,1004.49
2018-08-25T10:17:54.604Z,1004.46
2018-08-25T10:19:03.513Z,1004.47
2018-08-25T10:20:12.158Z,1004.48
2018-08-25T10:21:20.810Z,1004.52
2018-08-25T10:22:29.456Z,1004.51
2018-08-25T10:23:38.232Z,1004.54
2018-08-25T10:24:46.749Z,1004.51
2018-08-25T10:25:56.189Z,1004.54
2018-08-25T10:27:04.834Z,1004.51
2018-08-25T10:28:13.749Z,1004.55
2018-08-25T10:29:22.390Z,1004.55
2018-08-25T10:30:31.039Z,1004.6
2018-08-25T10:31:39.681Z,1004.6
2018-08-25T10:32:48.328Z,1004.58
2018-08-25T10:33:56.971Z,1004.64
2018-08-25T10:35:05.623Z,1004.62
2018-08-25T10:36:14.264Z,1004.62
2018-08-25T10:37:22.912Z,1004.48
2018-08-25T10:38:31.562Z,1004.63
2018-08-25T10:39:40.469Z,1004.6
2018-08-25T10:40:49.116Z,1004.63
2018-08-25T10:41:57.765Z,1004.66
2018-08-25T10:43:06.410Z,1004.6
2018-08-25T10:44:15.341Z,1004.68
2018-08-25T10:45:24.265Z,1004.61
2018-08-25T10:46:32.902Z,1004.61
2018-08-25T10:47:41.827Z,1004.6
2018-08-25T10:48:50.461Z,1004.58
2018-08-25T10:49:59.111Z,1004.69
2018-08-25T10:51:08.022Z,1004.72
2018-08-25T10:52:16.943Z,1004.66
2018-08-25T10:53:25.593Z,1004.64
2018-08-25T10:54:34.229Z,1004.67
2018-08-25T10:55:42.872Z,1004.65
2018-08-25T10:56:51.527Z,1004.75
2018-08-25T10:58:00.183Z,1004.69
2018-08-25T10:59:08.824Z,1004.74
2018-08-25T11:00:17.505Z,1004.66
2018-08-25T11:01:26.118Z,1004.75
2018-08-25T11:02:35.040Z,1004.64
2018-08-25T11:03:43.678Z,1004.66
2018-08-25T11:04:52.332Z,1004.64
2018-08-25T11:06:00.970Z,1004.64
2018-08-25T11:07:09.889Z,1004.63
2018-08-25T11:08:18.532Z,1004.62
2018-08-25T11:09:27.181Z,1004.62
2018-08-25T11:10:35.818Z,1004.7
2018-08-25T11:11:44.467Z,1004.74
2018-08-25T11:12:53.384Z,1004.64
2018-08-25T11:14:02.034Z,1004.64
2018-08-25T11:15:10.947Z,1004.67
2018-08-25T11:16:19.610Z,1004.67
2018-08-25T11:17:28.233Z,1004.65
2018-08-25T11:18:36.876Z,1004.59
2018-08-25T11:19:45.800Z,1004.59
2018-08-25T11:20:54.436Z,1004.64
2018-08-25T11:22:03.350Z,1004.64
2018-08-25T11:23:11.990Z,1004.62
2018-08-25T11:24:20.650Z,1004.67
2018-08-25T11:25:29.551Z,1004.66
2018-08-25T11:26:38.199Z,1004.78
2018-08-25T11:27:46.841Z,1004.71
2018-08-25T11:28:55.502Z,1004.7
2018-08-25T11:30:04.146Z,1004.72
2018-08-25T11:31:12.788Z,1004.67
2018-08-25T11:32:21.432Z,1004.62
2018-08-25T11:33:30.075Z,1004.69
2018-08-25T11:34:38.730Z,1004.68
2018-08-25T11:35:47.371Z,1004.67
2018-08-25T11:36:56.025Z,1004.71
2018-08-25T11:38:05.268Z,1004.71
2018-08-25T11:39:13.851Z,1004.69
2018-08-25T11:40:22.489Z,1004.71
2018-08-25T11:41:31.406Z,1004.74
2018-08-25T11:42:40.054Z,1004.73
2018-08-25T11:43:48.981Z,1004.67
2018-08-25T11:44:57.613Z,1004.74
2018-08-25T11:46:06.251Z,1004.68
2018-08-25T11:47:14.906Z,1004.69
2018-08-25T11:48:23.548Z,1004.69
2018-08-25T11:49:32.196Z,1004.76
2018-08-25T11:50:40.846Z,1004.89
2018-08-25T11:51:49.753Z,1004.68
2018-08-25T11:52:58.945Z,1004.78
2018-08-25T11:54:07.658Z,1004.79
2018-08-25T11:55:16.233Z,1004.75
2018-08-25T11:56:25.143Z,1004.7
2018-08-25T11:57:33.793Z,1004.71
2018-08-25T11:58:42.441Z,1004.7
2018-08-25T11:59:51.086Z,1004.73
2018-08-25T12:00:59.731Z,1004.75
2018-08-25T12:02:08.430Z,1004.74
2018-08-25T12:03:17.427Z,1004.73
2018-08-25T12:04:26.347Z,1004.7
2018-08-25T12:05:34.990Z,1004.73
2018-08-25T12:06:43.639Z,1004.66
2018-08-25T12:07:52.287Z,1004.7
2018-08-25T12:09:00.933Z,1004.66
2018-08-25T12:10:09.583Z,1004.65
2018-08-25T12:11:18.234Z,1004.65
2018-08-25T12:12:26.873Z,1004.72
2018-08-25T12:13:35.526Z,1004.65
2018-08-25T12:14:44.178Z,1004.64
2018-08-25T12:15:52.820Z,1004.64
2018-08-25T12:17:01.727Z,1004.67
2018-08-25T12:18:10.638Z,1004.71
2018-08-25T12:19:19.289Z,1004.7
2018-08-25T12:20:28.198Z,1004.72
2018-08-25T12:21:37.111Z,1004.67
2018-08-25T12:22:45.754Z,1004.71
2018-08-25T12:23:54.409Z,1004.68
2018-08-25T12:25:03.053Z,1004.68
2018-08-25T12:26:11.700Z,1004.61
2018-08-25T12:27:20.346Z,1004.64
2018-08-25T12:28:29.255Z,1004.62
2018-08-25T12:29:38.171Z,1004.64
2018-08-25T12:30:46.821Z,1004.61
2018-08-25T12:31:55.484Z,1004.57
2018-08-25T12:33:04.118Z,1004.64
2018-08-25T12:34:12.768Z,1004.6
2018-08-25T12:35:21.416Z,1004.65
2018-08-25T12:36:30.067Z,1004.6
2018-08-25T12:37:38.980Z,1004.65
2018-08-25T12:38:47.895Z,1004.64
2018-08-25T12:39:56.542Z,1004.66
2018-08-25T12:41:05.192Z,1004.66
2018-08-25T12:42:13.835Z,1004.67
2018-08-25T12:43:22.543Z,1004.53
2018-08-25T12:44:31.143Z,1004.55
2018-08-25T12:45:39.791Z,1004.52
2018-08-25T12:46:48.441Z,1004.61
2018-08-25T12:47:57.079Z,1004.6
2018-08-25T12:49:05.745Z,1004.58
2018-08-25T12:50:14.650Z,1004.65
2018-08-25T12:51:23.306Z,1004.65
2018-08-25T12:52:31.945Z,1004.56
2018-08-25T12:53:40.615Z,1004.63
2018-08-25T12:54:49.241Z,1004.54
2018-08-25T12:55:57.902Z,1004.52
2018-08-25T12:57:06.808Z,1004.6
2018-08-25T12:58:15.456Z,1004.65
2018-08-25T12:59:24.105Z,1004.65
2018-08-25T13:00:32.762Z,1004.63
2018-08-25T13:01:41.440Z,1004.65
2018-08-25T13:02:50.055Z,1004.73
2018-08-25T13:03:58.967Z,1004.65
2018-08-25T13:05:07.874Z,1004.7
2018-08-25T13:06:16.532Z,1004.61
2018-08-25T13:07:25.216Z,1004.68
2018-08-25T13:08:33.835Z,1004.82
2018-08-25T13:09:42.756Z,1004.72
2018-08-25T13:10:51.412Z,1004.82
2018-08-25T13:12:00.059Z,1004.91
2018-08-25T13:13:08.826Z,1005.1
2018-08-25T13:14:17.349Z,1005.38
2018-08-25T13:15:26.006Z,1005.27
2018-08-25T13:16:34.652Z,1005.5
2018-08-25T13:17:43.309Z,1005.56
2018-08-25T13:18:51.989Z,1005.58
2018-08-25T13:20:00.953Z,1005.42
2018-08-25T13:21:09.604Z,1005.5
2018-08-25T13:22:18.251Z,1005.68
2018-08-25T13:23:26.947Z,1005.69
2018-08-25T13:24:35.952Z,1005.62
2018-08-25T13:25:44.602Z,1005.63
2018-08-25T13:26:53.243Z,1005.64
2018-08-25T13:28:02.159Z,1005.54
2018-08-25T13:29:10.792Z,1005.52
2018-08-25T13:30:19.444Z,1005.51
2018-08-25T13:31:28.355Z,1005.56
2018-08-25T13:32:37.006Z,1005.59
2018-08-25T13:33:45.640Z,1005.65
2018-08-25T13:34:54.547Z,1005.64
2018-08-25T13:36:03.189Z,1005.61
2018-08-25T13:37:11.841Z,1005.66
2018-08-25T13:38:20.488Z,1005.67
2018-08-25T13:39:29.128Z,1005.65
2018-08-25T13:40:37.778Z,1005.66
2018-08-25T13:41:46.701Z,1005.62
2018-08-25T13:42:55.598Z,1005.65
2018-08-25T13:44:04.262Z,1005.65
2018-08-25T13:45:13.239Z,1005.64
2018-08-25T13:46:21.891Z,1005.63
2018-08-25T13:47:30.524Z,1005.6
2018-08-25T13:48:39.175Z,1005.64
2018-08-25T13:49:48.078Z,1005.61
2018-08-25T13:50:56.745Z,1005.63
2018-08-25T13:52:05.701Z,1005.66
2018-08-25T13:53:14.349Z,1005.68
2018-08-25T13:54:23.256Z,1005.72